sensor_id;sensor_type;location;lat;lon;timestamp;temperature;humidity
13569;DHT22;6856;51.460;7.158;2022-07-23T00:02:20;21.70;56.70
13569;DHT22;6856;51.460;7.158;2022-07-23T00:04:56;21.90;58.30
13569;DHT22;6856;51.460;7.158;2022-07-23T00:07:32;21.90;58.40
13569;DHT22;6856;51.460;7.158;2022-07-23T00:10:10;21.90;58.40
13569;DHT22;6856;51.460;7.158;2022-07-23T00:12:45;21.80;58.60
13569;DHT22;6856;51.460;7.158;2022-07-23T00:15:24;21.80;58.50
13569;DHT22;6856;51.460;7.158;2022-07-23T00:17:59;21.80;58.80
13569;DHT22;6856;51.460;7.158;2022-07-23T00:20:35;21.70;58.90
13569;DHT22;6856;51.460;7.158;2022-07-23T00:23:15;21.50;58.80
13569;DHT22;6856;51.460;7.158;2022-07-23T00:25:52;21.70;58.60
13569;DHT22;6856;51.460;7.158;2022-07-23T00:28:28;21.70;58.00
13569;DHT22;6856;51.460;7.158;2022-07-23T00:31:16;21.70;59.30
13569;DHT22;6856;51.460;7.158;2022-07-23T00:33:52;21.70;58.50
13569;DHT22;6856;51.460;7.158;2022-07-23T00:36:30;21.50;58.90
13569;DHT22;6856;51.460;7.158;2022-07-23T00:39:06;21.60;59.40
13569;DHT22;6856;51.460;7.158;2022-07-23T00:41:43;21.60;59.40
13569;DHT22;6856;51.460;7.158;2022-07-23T00:44:23;21.60;58.60
13569;DHT22;6856;51.460;7.158;2022-07-23T00:47:00;21.60;58.80
13569;DHT22;6856;51.460;7.158;2022-07-23T00:49:36;21.50;58.70
13569;DHT22;6856;51.460;7.158;2022-07-23T00:52:12;21.50;59.60
13569;DHT22;6856;51.460;7.158;2022-07-23T00:54:48;21.50;59.50
13569;DHT22;6856;51.460;7.158;2022-07-23T00:57:25;21.20;59.30
13569;DHT22;6856;51.460;7.158;2022-07-23T01:00:05;21.40;59.70
13569;DHT22;6856;51.460;7.158;2022-07-23T01:02:45;21.40;59.70
13569;DHT22;6856;51.460;7.158;2022-07-23T01:05:21;21.40;59.50
13569;DHT22;6856;51.460;7.158;2022-07-23T01:07:58;21.30;59.50
13569;DHT22;6856;51.460;7.158;2022-07-23T01:10:37;21.30;59.60
13569;DHT22;6856;51.460;7.158;2022-07-23T01:13:18;21.30;59.30
13569;DHT22;6856;51.460;7.158;2022-07-23T01:15:54;21.30;60.70
13569;DHT22;6856;51.460;7.158;2022-07-23T01:18:32;21.20;58.80
13569;DHT22;6856;51.460;7.158;2022-07-23T01:21:10;21.20;60.20
13569;DHT22;6856;51.460;7.158;2022-07-23T01:24:00;21.20;60.40
13569;DHT22;6856;51.460;7.158;2022-07-23T01:26:39;21.40;60.20
13569;DHT22;6856;51.460;7.158;2022-07-23T01:29:40;21.10;59.70
13569;DHT22;6856;51.460;7.158;2022-07-23T01:32:22;21.30;60.00
13569;DHT22;6856;51.460;7.158;2022-07-23T01:34:58;21.10;59.80
13569;DHT22;6856;51.460;7.158;2022-07-23T01:37:42;21.10;59.80
13569;DHT22;6856;51.460;7.158;2022-07-23T01:40:20;21.10;60.60
13569;DHT22;6856;51.460;7.158;2022-07-23T01:42:59;21.10;59.00
13569;DHT22;6856;51.460;7.158;2022-07-23T01:45:36;21.00;60.60
13569;DHT22;6856;51.460;7.158;2022-07-23T01:48:13;21.00;60.00
13569;DHT22;6856;51.460;7.158;2022-07-23T01:50:55;21.00;60.90
13569;DHT22;6856;51.460;7.158;2022-07-23T01:53:42;21.00;61.20
13569;DHT22;6856;51.460;7.158;2022-07-23T01:56:25;21.00;60.30
13569;DHT22;6856;51.460;7.158;2022-07-23T01:59:07;20.90;60.90
13569;DHT22;6856;51.460;7.158;2022-07-23T02:01:43;21.00;59.60
13569;DHT22;6856;51.460;7.158;2022-07-23T02:04:24;20.90;60.40
13569;DHT22;6856;51.460;7.158;2022-07-23T02:07:01;20.90;61.50
13569;DHT22;6856;51.460;7.158;2022-07-23T02:09:37;20.90;61.70
13569;DHT22;6856;51.460;7.158;2022-07-23T02:12:14;20.90;61.80
13569;DHT22;6856;51.460;7.158;2022-07-23T02:14:50;20.90;61.70
13569;DHT22;6856;51.460;7.158;2022-07-23T02:17:29;20.90;61.80
13569;DHT22;6856;51.460;7.158;2022-07-23T02:20:10;20.90;62.10
13569;DHT22;6856;51.460;7.158;2022-07-23T02:22:49;20.90;62.10
13569;DHT22;6856;51.460;7.158;2022-07-23T02:25:25;20.90;62.20
13569;DHT22;6856;51.460;7.158;2022-07-23T02:28:04;20.90;62.00
13569;DHT22;6856;51.460;7.158;2022-07-23T02:30:40;20.90;62.00
13569;DHT22;6856;51.460;7.158;2022-07-23T02:33:16;20.90;62.00
13569;DHT22;6856;51.460;7.158;2022-07-23T02:35:54;20.90;62.10
13569;DHT22;6856;51.460;7.158;2022-07-23T02:38:30;20.90;61.60
13569;DHT22;6856;51.460;7.158;2022-07-23T02:41:12;20.90;62.40
13569;DHT22;6856;51.460;7.158;2022-07-23T02:43:49;20.90;62.40
13569;DHT22;6856;51.460;7.158;2022-07-23T02:46:26;20.90;62.20
13569;DHT22;6856;51.460;7.158;2022-07-23T02:49:06;20.70;61.70
13569;DHT22;6856;51.460;7.158;2022-07-23T02:51:44;20.90;60.80
13569;DHT22;6856;51.460;7.158;2022-07-23T02:54:22;20.90;60.50
13569;DHT22;6856;51.460;7.158;2022-07-23T02:57:01;20.80;62.20
13569;DHT22;6856;51.460;7.158;2022-07-23T02:59:43;20.80;61.60
13569;DHT22;6856;51.460;7.158;2022-07-23T03:02:21;20.80;61.60
13569;DHT22;6856;51.460;7.158;2022-07-23T03:05:00;20.80;61.30
13569;DHT22;6856;51.460;7.158;2022-07-23T03:07:37;20.80;61.50
13569;DHT22;6856;51.460;7.158;2022-07-23T03:10:13;20.70;61.30
13569;DHT22;6856;51.460;7.158;2022-07-23T03:12:51;20.70;61.50
13569;DHT22;6856;51.460;7.158;2022-07-23T03:15:32;20.70;61.80
13569;DHT22;6856;51.460;7.158;2022-07-23T03:18:13;20.50;60.90
13569;DHT22;6856;51.460;7.158;2022-07-23T03:20:51;20.60;61.90
13569;DHT22;6856;51.460;7.158;2022-07-23T03:23:27;20.60;61.80
13569;DHT22;6856;51.460;7.158;2022-07-23T03:26:03;20.40;60.40
13569;DHT22;6856;51.460;7.158;2022-07-23T03:28:41;20.60;61.50
13569;DHT22;6856;51.460;7.158;2022-07-23T03:31:36;20.60;61.60
13569;DHT22;6856;51.460;7.158;2022-07-23T03:34:17;20.60;60.90
13569;DHT22;6856;51.460;7.158;2022-07-23T03:36:56;20.60;60.50
13569;DHT22;6856;51.460;7.158;2022-07-23T03:39:38;20.60;60.40
13569;DHT22;6856;51.460;7.158;2022-07-23T03:42:15;20.80;60.90
13569;DHT22;6856;51.460;7.158;2022-07-23T03:44:51;20.50;60.30
13569;DHT22;6856;51.460;7.158;2022-07-23T03:47:29;20.50;60.90
13569;DHT22;6856;51.460;7.158;2022-07-23T03:50:09;20.50;60.30
13569;DHT22;6856;51.460;7.158;2022-07-23T03:52:44;20.50;61.10
13569;DHT22;6856;51.460;7.158;2022-07-23T03:55:20;20.50;61.20
13569;DHT22;6856;51.460;7.158;2022-07-23T03:57:55;20.50;61.50
13569;DHT22;6856;51.460;7.158;2022-07-23T04:00:32;20.40;61.60
13569;DHT22;6856;51.460;7.158;2022-07-23T04:03:09;20.40;60.70
13569;DHT22;6856;51.460;7.158;2022-07-23T04:05:45;20.40;61.70
13569;DHT22;6856;51.460;7.158;2022-07-23T04:08:21;20.30;61.60
13569;DHT22;6856;51.460;7.158;2022-07-23T04:10:56;20.30;61.50
13569;DHT22;6856;51.460;7.158;2022-07-23T04:13:33;20.30;60.90
13569;DHT22;6856;51.460;7.158;2022-07-23T04:16:09;20.30;60.80
13569;DHT22;6856;51.460;7.158;2022-07-23T04:18:46;20.30;61.10
13569;DHT22;6856;51.460;7.158;2022-07-23T04:21:22;20.20;61.30
13569;DHT22;6856;51.460;7.158;2022-07-23T04:23:58;20.20;60.60
13569;DHT22;6856;51.460;7.158;2022-07-23T04:26:48;20.20;61.80
13569;DHT22;6856;51.460;7.158;2022-07-23T04:29:24;20.20;61.80
13569;DHT22;6856;51.460;7.158;2022-07-23T04:31:59;20.20;61.90
13569;DHT22;6856;51.460;7.158;2022-07-23T04:34:36;20.20;62.00
13569;DHT22;6856;51.460;7.158;2022-07-23T04:37:11;20.20;62.00
13569;DHT22;6856;51.460;7.158;2022-07-23T04:39:52;20.10;62.10
13569;DHT22;6856;51.460;7.158;2022-07-23T04:42:30;20.10;62.10
13569;DHT22;6856;51.460;7.158;2022-07-23T06:20:09;20.60;65.20
13569;DHT22;6856;51.460;7.158;2022-07-23T06:22:43;20.70;64.80
13569;DHT22;6856;51.460;7.158;2022-07-23T06:25:17;20.80;64.30
13569;DHT22;6856;51.460;7.158;2022-07-23T06:27:52;20.80;64.10
13569;DHT22;6856;51.460;7.158;2022-07-23T06:30:27;20.90;64.30
13569;DHT22;6856;51.460;7.158;2022-07-23T06:33:05;21.10;64.20
13569;DHT22;6856;51.460;7.158;2022-07-23T06:35:41;20.90;63.70
13569;DHT22;6856;51.460;7.158;2022-07-23T06:38:17;20.90;63.70
13569;DHT22;6856;51.460;7.158;2022-07-23T06:40:52;20.90;63.50
13569;DHT22;6856;51.460;7.158;2022-07-23T06:43:28;20.90;63.70
13569;DHT22;6856;51.460;7.158;2022-07-23T06:46:04;21.00;64.40
13569;DHT22;6856;51.460;7.158;2022-07-23T06:48:44;20.80;64.60
13569;DHT22;6856;51.460;7.158;2022-07-23T06:51:19;20.90;65.10
13569;DHT22;6856;51.460;7.158;2022-07-23T06:53:58;20.70;64.90
13569;DHT22;6856;51.460;7.158;2022-07-23T06:56:43;21.20;64.30
13569;DHT22;6856;51.460;7.158;2022-07-23T06:59:17;21.00;65.20
13569;DHT22;6856;51.460;7.158;2022-07-23T07:01:56;21.10;65.40
13569;DHT22;6856;51.460;7.158;2022-07-23T07:04:31;21.20;65.20
13569;DHT22;6856;51.460;7.158;2022-07-23T07:07:06;21.30;65.30
13569;DHT22;6856;51.460;7.158;2022-07-23T07:09:40;21.30;65.80
13569;DHT22;6856;51.460;7.158;2022-07-23T07:12:16;21.40;65.10
13569;DHT22;6856;51.460;7.158;2022-07-23T07:14:50;21.50;65.00
13569;DHT22;6856;51.460;7.158;2022-07-23T07:17:25;21.50;65.80
13569;DHT22;6856;51.460;7.158;2022-07-23T07:19:59;21.60;65.90
13569;DHT22;6856;51.460;7.158;2022-07-23T07:22:35;21.70;65.00
13569;DHT22;6856;51.460;7.158;2022-07-23T07:25:09;21.80;65.00
13569;DHT22;6856;51.460;7.158;2022-07-23T07:27:43;21.80;64.60
13569;DHT22;6856;51.460;7.158;2022-07-23T07:30:17;21.90;64.10
13569;DHT22;6856;51.460;7.158;2022-07-23T07:32:51;21.90;64.30
13569;DHT22;6856;51.460;7.158;2022-07-23T07:35:28;21.90;64.20
13569;DHT22;6856;51.460;7.158;2022-07-23T07:38:05;21.90;64.20
13569;DHT22;6856;51.460;7.158;2022-07-23T07:40:39;22.00;64.40
13569;DHT22;6856;51.460;7.158;2022-07-23T07:43:13;22.00;63.90
13569;DHT22;6856;51.460;7.158;2022-07-23T07:45:47;22.10;64.20
13569;DHT22;6856;51.460;7.158;2022-07-23T07:48:21;22.10;63.80
13569;DHT22;6856;51.460;7.158;2022-07-23T07:51:01;22.10;63.70
13569;DHT22;6856;51.460;7.158;2022-07-23T07:53:50;22.20;63.50
13569;DHT22;6856;51.460;7.158;2022-07-23T07:56:24;22.20;63.60
13569;DHT22;6856;51.460;7.158;2022-07-23T07:58:57;22.20;62.50
13569;DHT22;6856;51.460;7.158;2022-07-23T08:01:33;22.20;62.60
13569;DHT22;6856;51.460;7.158;2022-07-23T08:04:07;22.30;62.20
13569;DHT22;6856;51.460;7.158;2022-07-23T08:06:41;22.30;63.30
13569;DHT22;6856;51.460;7.158;2022-07-23T08:09:17;22.40;63.10
13569;DHT22;6856;51.460;7.158;2022-07-23T08:11:55;22.40;62.40
13569;DHT22;6856;51.460;7.158;2022-07-23T08:14:30;22.40;62.50
13569;DHT22;6856;51.460;7.158;2022-07-23T08:17:05;22.50;62.60
13569;DHT22;6856;51.460;7.158;2022-07-23T08:19:46;22.60;63.10
13569;DHT22;6856;51.460;7.158;2022-07-23T08:22:21;22.70;62.40
13569;DHT22;6856;51.460;7.158;2022-07-23T08:24:58;22.70;62.50
13569;DHT22;6856;51.460;7.158;2022-07-23T08:27:33;22.90;61.20
13569;DHT22;6856;51.460;7.158;2022-07-23T08:30:11;22.90;61.30
13569;DHT22;6856;51.460;7.158;2022-07-23T08:32:50;23.00;61.40
13569;DHT22;6856;51.460;7.158;2022-07-23T08:35:31;23.10;61.40
13569;DHT22;6856;51.460;7.158;2022-07-23T08:38:08;23.20;60.80
13569;DHT22;6856;51.460;7.158;2022-07-23T08:40:49;23.50;61.10
13569;DHT22;6856;51.460;7.158;2022-07-23T08:43:32;23.40;60.10
13569;DHT22;6856;51.460;7.158;2022-07-23T08:46:19;23.50;60.10
13569;DHT22;6856;51.460;7.158;2022-07-23T08:48:58;23.60;60.00
13569;DHT22;6856;51.460;7.158;2022-07-23T08:51:34;23.70;59.60
13569;DHT22;6856;51.460;7.158;2022-07-23T08:54:10;23.90;59.60
13569;DHT22;6856;51.460;7.158;2022-07-23T08:56:48;24.00;59.60
13569;DHT22;6856;51.460;7.158;2022-07-23T08:59:29;24.10;58.20
13569;DHT22;6856;51.460;7.158;2022-07-23T09:02:21;24.20;58.50
13569;DHT22;6856;51.460;7.158;2022-07-23T09:05:02;24.30;58.50
13569;DHT22;6856;51.460;7.158;2022-07-23T09:08:11;24.40;58.10
13569;DHT22;6856;51.460;7.158;2022-07-23T09:11:10;24.50;58.30
13569;DHT22;6856;51.460;7.158;2022-07-23T09:17:20;24.70;57.40
13569;DHT22;6856;51.460;7.158;2022-07-23T09:20:08;24.70;57.00
13569;DHT22;6856;51.460;7.158;2022-07-23T09:22:48;24.80;56.80
13569;DHT22;6856;51.460;7.158;2022-07-23T09:25:23;24.90;56.50
13569;DHT22;6856;51.460;7.158;2022-07-23T09:27:59;24.90;55.40
13569;DHT22;6856;51.460;7.158;2022-07-23T10:02:59;25.80;54.80
13569;DHT22;6856;51.460;7.158;2022-07-23T10:05:37;26.00;53.70
13569;DHT22;6856;51.460;7.158;2022-07-23T10:08:23;26.00;54.00
13569;DHT22;6856;51.460;7.158;2022-07-23T10:11:06;26.10;53.60
13569;DHT22;6856;51.460;7.158;2022-07-23T10:14:10;26.10;54.00
13569;DHT22;6856;51.460;7.158;2022-07-23T10:16:44;26.20;53.50
13569;DHT22;6856;51.460;7.158;2022-07-23T10:19:25;26.30;54.10
13569;DHT22;6856;51.460;7.158;2022-07-23T10:22:04;26.40;53.20
13569;DHT22;6856;51.460;7.158;2022-07-23T10:31:13;26.80;53.40
13569;DHT22;6856;51.460;7.158;2022-07-23T10:34:24;26.90;52.90
13569;DHT22;6856;51.460;7.158;2022-07-23T10:37:11;27.00;53.40
13569;DHT22;6856;51.460;7.158;2022-07-23T10:40:08;27.20;52.60
13569;DHT22;6856;51.460;7.158;2022-07-23T10:42:45;27.30;51.20
13569;DHT22;6856;51.460;7.158;2022-07-23T10:45:27;27.40;50.90
13569;DHT22;6856;51.460;7.158;2022-07-23T10:48:22;27.40;50.90
13569;DHT22;6856;51.460;7.158;2022-07-23T10:51:11;27.50;50.80
13569;DHT22;6856;51.460;7.158;2022-07-23T10:53:55;27.50;50.70
13569;DHT22;6856;51.460;7.158;2022-07-23T10:57:05;27.60;50.80
13569;DHT22;6856;51.460;7.158;2022-07-23T11:00:20;27.70;50.70
13569;DHT22;6856;51.460;7.158;2022-07-23T11:03:00;27.80;49.90
13569;DHT22;6856;51.460;7.158;2022-07-23T11:05:41;27.80;50.20
13569;DHT22;6856;51.460;7.158;2022-07-23T11:08:19;27.90;49.30
13569;DHT22;6856;51.460;7.158;2022-07-23T11:11:08;27.90;49.30
13569;DHT22;6856;51.460;7.158;2022-07-23T11:13:48;28.00;48.70
13569;DHT22;6856;51.460;7.158;2022-07-23T11:16:24;28.00;48.50
13569;DHT22;6856;51.460;7.158;2022-07-23T11:19:07;28.00;48.20
13569;DHT22;6856;51.460;7.158;2022-07-23T11:21:50;28.00;48.60
13569;DHT22;6856;51.460;7.158;2022-07-23T11:24:27;28.00;47.80
13569;DHT22;6856;51.460;7.158;2022-07-23T11:27:03;28.00;47.80
13569;DHT22;6856;51.460;7.158;2022-07-23T11:29:45;28.10;48.20
13569;DHT22;6856;51.460;7.158;2022-07-23T11:32:37;28.10;48.70
13569;DHT22;6856;51.460;7.158;2022-07-23T11:35:24;28.20;47.80
13569;DHT22;6856;51.460;7.158;2022-07-23T11:38:04;28.30;48.70
13569;DHT22;6856;51.460;7.158;2022-07-23T11:40:45;28.30;48.20
13569;DHT22;6856;51.460;7.158;2022-07-23T11:43:21;28.40;48.50
13569;DHT22;6856;51.460;7.158;2022-07-23T11:45:59;28.50;48.40
13569;DHT22;6856;51.460;7.158;2022-07-23T11:48:35;28.60;47.30
13569;DHT22;6856;51.460;7.158;2022-07-23T11:51:25;28.70;47.00
13569;DHT22;6856;51.460;7.158;2022-07-23T11:54:06;28.70;46.20
13569;DHT22;6856;51.460;7.158;2022-07-23T11:56:57;28.80;46.10
13569;DHT22;6856;51.460;7.158;2022-07-23T11:59:34;28.90;45.90
13569;DHT22;6856;51.460;7.158;2022-07-23T12:02:12;28.90;46.60
13569;DHT22;6856;51.460;7.158;2022-07-23T12:04:50;29.00;46.60
13569;DHT22;6856;51.460;7.158;2022-07-23T12:07:31;29.10;47.10
13569;DHT22;6856;51.460;7.158;2022-07-23T12:10:11;29.10;46.30
13569;DHT22;6856;51.460;7.158;2022-07-23T12:12:51;29.20;45.90
13569;DHT22;6856;51.460;7.158;2022-07-23T12:15:29;29.30;45.70
13569;DHT22;6856;51.460;7.158;2022-07-23T12:18:07;29.30;45.00
13569;DHT22;6856;51.460;7.158;2022-07-23T12:20:45;29.30;45.30
13569;DHT22;6856;51.460;7.158;2022-07-23T12:23:25;29.30;44.60
13569;DHT22;6856;51.460;7.158;2022-07-23T12:26:02;29.30;45.50
13569;DHT22;6856;51.460;7.158;2022-07-23T12:28:41;29.40;45.00
13569;DHT22;6856;51.460;7.158;2022-07-23T12:31:26;29.40;45.00
13569;DHT22;6856;51.460;7.158;2022-07-23T12:34:13;29.50;45.50
13569;DHT22;6856;51.460;7.158;2022-07-23T12:36:49;29.50;44.60
13569;DHT22;6856;51.460;7.158;2022-07-23T12:39:31;29.60;44.60
13569;DHT22;6856;51.460;7.158;2022-07-23T12:42:11;29.70;43.70
13569;DHT22;6856;51.460;7.158;2022-07-23T12:45:11;29.70;44.80
13569;DHT22;6856;51.460;7.158;2022-07-23T12:47:55;29.80;45.20
13569;DHT22;6856;51.460;7.158;2022-07-23T12:50:44;29.80;44.70
13569;DHT22;6856;51.460;7.158;2022-07-23T12:53:26;29.90;44.80
13569;DHT22;6856;51.460;7.158;2022-07-23T12:56:05;29.90;44.80
13569;DHT22;6856;51.460;7.158;2022-07-23T12:58:48;30.00;44.30
13569;DHT22;6856;51.460;7.158;2022-07-23T13:01:29;30.10;44.60
13569;DHT22;6856;51.460;7.158;2022-07-23T13:04:07;30.20;44.40
13569;DHT22;6856;51.460;7.158;2022-07-23T13:06:48;30.30;44.50
13569;DHT22;6856;51.460;7.158;2022-07-23T13:09:27;30.40;44.70
13569;DHT22;6856;51.460;7.158;2022-07-23T13:12:04;30.40;43.30
13569;DHT22;6856;51.460;7.158;2022-07-23T13:14:39;30.50;44.30
13569;DHT22;6856;51.460;7.158;2022-07-23T13:17:16;30.50;43.20
13569;DHT22;6856;51.460;7.158;2022-07-23T13:19:52;30.60;43.10
13569;DHT22;6856;51.460;7.158;2022-07-23T13:22:27;30.50;42.10
13569;DHT22;6856;51.460;7.158;2022-07-23T13:25:03;30.50;43.40
13569;DHT22;6856;51.460;7.158;2022-07-23T13:27:38;30.50;42.70
13569;DHT22;6856;51.460;7.158;2022-07-23T13:30:13;30.40;42.40
13569;DHT22;6856;51.460;7.158;2022-07-23T13:32:51;30.40;42.40
13569;DHT22;6856;51.460;7.158;2022-07-23T13:35:33;30.40;42.60
13569;DHT22;6856;51.460;7.158;2022-07-23T13:38:09;30.40;42.20
13569;DHT22;6856;51.460;7.158;2022-07-23T13:40:50;30.30;41.70
13569;DHT22;6856;51.460;7.158;2022-07-23T13:43:26;30.30;42.20
13569;DHT22;6856;51.460;7.158;2022-07-23T13:46:07;30.40;41.90
13569;DHT22;6856;51.460;7.158;2022-07-23T13:48:45;30.30;42.20
13569;DHT22;6856;51.460;7.158;2022-07-23T13:51:21;30.30;42.50
13569;DHT22;6856;51.460;7.158;2022-07-23T13:53:57;30.40;42.20
13569;DHT22;6856;51.460;7.158;2022-07-23T13:56:40;30.40;41.70
13569;DHT22;6856;51.460;7.158;2022-07-23T13:59:15;30.40;41.00
13569;DHT22;6856;51.460;7.158;2022-07-23T14:01:50;30.40;41.10
13569;DHT22;6856;51.460;7.158;2022-07-23T14:04:47;30.40;41.90
13569;DHT22;6856;51.460;7.158;2022-07-23T14:07:22;30.40;41.70
13569;DHT22;6856;51.460;7.158;2022-07-23T14:09:57;30.40;40.70
13569;DHT22;6856;51.460;7.158;2022-07-23T14:12:33;30.30;40.40
13569;DHT22;6856;51.460;7.158;2022-07-23T14:15:09;30.20;41.00
13569;DHT22;6856;51.460;7.158;2022-07-23T14:17:45;30.20;41.60
13569;DHT22;6856;51.460;7.158;2022-07-23T14:20:22;30.20;40.90
13569;DHT22;6856;51.460;7.158;2022-07-23T14:22:58;30.20;41.80
13569;DHT22;6856;51.460;7.158;2022-07-23T14:25:37;30.20;41.60
13569;DHT22;6856;51.460;7.158;2022-07-23T14:28:12;30.20;41.70
13569;DHT22;6856;51.460;7.158;2022-07-23T14:30:48;30.20;41.80
13569;DHT22;6856;51.460;7.158;2022-07-23T14:33:23;30.20;41.30
13569;DHT22;6856;51.460;7.158;2022-07-23T14:36:00;30.20;41.20
13569;DHT22;6856;51.460;7.158;2022-07-23T14:38:35;30.20;41.50
13569;DHT22;6856;51.460;7.158;2022-07-23T14:41:10;30.30;41.10
13569;DHT22;6856;51.460;7.158;2022-07-23T14:43:47;30.30;41.10
13569;DHT22;6856;51.460;7.158;2022-07-23T14:46:23;30.30;41.00
13569;DHT22;6856;51.460;7.158;2022-07-23T14:48:58;30.30;40.90
13569;DHT22;6856;51.460;7.158;2022-07-23T14:51:36;30.20;40.60
13569;DHT22;6856;51.460;7.158;2022-07-23T14:54:11;30.20;40.60
13569;DHT22;6856;51.460;7.158;2022-07-23T14:56:46;30.20;40.50
13569;DHT22;6856;51.460;7.158;2022-07-23T14:59:23;30.10;40.30
13569;DHT22;6856;51.460;7.158;2022-07-23T15:01:59;30.10;40.60
13569;DHT22;6856;51.460;7.158;2022-07-23T15:04:34;30.10;40.20
13569;DHT22;6856;51.460;7.158;2022-07-23T15:07:11;30.10;40.30
13569;DHT22;6856;51.460;7.158;2022-07-23T15:09:46;30.10;40.70
13569;DHT22;6856;51.460;7.158;2022-07-23T15:12:21;30.20;40.70
13569;DHT22;6856;51.460;7.158;2022-07-23T15:14:58;30.10;40.60
13569;DHT22;6856;51.460;7.158;2022-07-23T15:17:33;30.10;40.70
13569;DHT22;6856;51.460;7.158;2022-07-23T15:20:09;30.20;40.90
13569;DHT22;6856;51.460;7.158;2022-07-23T15:22:50;30.10;40.80
13569;DHT22;6856;51.460;7.158;2022-07-23T15:25:25;30.10;40.50
13569;DHT22;6856;51.460;7.158;2022-07-23T15:28:01;30.10;40.60
13569;DHT22;6856;51.460;7.158;2022-07-23T15:30:39;30.10;40.60
13569;DHT22;6856;51.460;7.158;2022-07-23T15:33:14;30.00;40.40
13569;DHT22;6856;51.460;7.158;2022-07-23T15:35:53;30.00;40.40
13569;DHT22;6856;51.460;7.158;2022-07-23T15:38:32;29.90;40.50
13569;DHT22;6856;51.460;7.158;2022-07-23T15:41:07;29.90;40.60
13569;DHT22;6856;51.460;7.158;2022-07-23T15:43:42;29.90;40.80
13569;DHT22;6856;51.460;7.158;2022-07-23T15:46:18;29.90;40.10
13569;DHT22;6856;51.460;7.158;2022-07-23T15:48:56;29.90;40.30
13569;DHT22;6856;51.460;7.158;2022-07-23T15:51:32;29.90;40.50
13569;DHT22;6856;51.460;7.158;2022-07-23T15:54:09;29.80;39.90
13569;DHT22;6856;51.460;7.158;2022-07-23T15:56:44;29.80;39.90
13569;DHT22;6856;51.460;7.158;2022-07-23T15:59:21;29.70;40.30
13569;DHT22;6856;51.460;7.158;2022-07-23T16:02:01;29.70;40.30
13569;DHT22;6856;51.460;7.158;2022-07-23T16:04:36;29.70;40.30
13569;DHT22;6856;51.460;7.158;2022-07-23T16:07:11;29.60;40.10
13569;DHT22;6856;51.460;7.158;2022-07-23T16:09:48;29.60;40.00
13569;DHT22;6856;51.460;7.158;2022-07-23T16:12:24;29.60;40.10
13569;DHT22;6856;51.460;7.158;2022-07-23T16:14:59;29.60;40.80
13569;DHT22;6856;51.460;7.158;2022-07-23T16:17:38;29.50;40.80
13569;DHT22;6856;51.460;7.158;2022-07-23T16:20:13;29.60;41.00
13569;DHT22;6856;51.460;7.158;2022-07-23T16:22:48;29.60;41.10
13569;DHT22;6856;51.460;7.158;2022-07-23T16:25:25;29.60;41.70
13569;DHT22;6856;51.460;7.158;2022-07-23T16:28:00;29.60;40.60
13569;DHT22;6856;51.460;7.158;2022-07-23T16:30:35;29.60;40.90
13569;DHT22;6856;51.460;7.158;2022-07-23T16:33:12;29.70;41.10
13569;DHT22;6856;51.460;7.158;2022-07-23T16:35:47;29.70;40.60
13569;DHT22;6856;51.460;7.158;2022-07-23T16:38:22;29.40;40.70
13569;DHT22;6856;51.460;7.158;2022-07-23T16:40:59;29.80;41.00
13569;DHT22;6856;51.460;7.158;2022-07-23T16:43:35;29.80;40.50
13569;DHT22;6856;51.460;7.158;2022-07-23T16:46:11;29.80;41.00
13569;DHT22;6856;51.460;7.158;2022-07-23T16:48:46;29.80;40.30
13569;DHT22;6856;51.460;7.158;2022-07-23T16:51:22;29.80;41.00
13569;DHT22;6856;51.460;7.158;2022-07-23T16:53:57;29.80;41.10
13569;DHT22;6856;51.460;7.158;2022-07-23T16:56:34;29.80;40.80
13569;DHT22;6856;51.460;7.158;2022-07-23T16:59:11;29.80;41.00
13569;DHT22;6856;51.460;7.158;2022-07-23T17:01:46;29.80;40.40
13569;DHT22;6856;51.460;7.158;2022-07-23T17:04:21;29.80;40.40
13569;DHT22;6856;51.460;7.158;2022-07-23T17:06:56;29.80;40.60
13569;DHT22;6856;51.460;7.158;2022-07-23T17:09:35;29.80;40.40
13569;DHT22;6856;51.460;7.158;2022-07-23T17:12:12;29.80;40.90
13569;DHT22;6856;51.460;7.158;2022-07-23T17:14:47;29.80;40.60
13569;DHT22;6856;51.460;7.158;2022-07-23T17:17:22;29.80;40.40
13569;DHT22;6856;51.460;7.158;2022-07-23T17:19:57;29.80;40.30
13569;DHT22;6856;51.460;7.158;2022-07-23T17:22:33;29.80;40.40
13569;DHT22;6856;51.460;7.158;2022-07-23T17:25:09;29.80;40.50
13569;DHT22;6856;51.460;7.158;2022-07-23T17:27:48;29.80;41.00
13569;DHT22;6856;51.460;7.158;2022-07-23T17:30:23;29.80;41.10
13569;DHT22;6856;51.460;7.158;2022-07-23T17:33:02;29.80;41.00
13569;DHT22;6856;51.460;7.158;2022-07-23T17:35:39;29.80;40.70
13569;DHT22;6856;51.460;7.158;2022-07-23T17:38:15;29.50;40.20
13569;DHT22;6856;51.460;7.158;2022-07-23T17:40:50;29.80;40.30
13569;DHT22;6856;51.460;7.158;2022-07-23T17:43:26;29.70;40.30
13569;DHT22;6856;51.460;7.158;2022-07-23T17:46:01;29.70;41.00
13569;DHT22;6856;51.460;7.158;2022-07-23T17:48:37;29.70;41.30
13569;DHT22;6856;51.460;7.158;2022-07-23T17:51:13;29.70;41.30
13569;DHT22;6856;51.460;7.158;2022-07-23T17:53:48;29.70;41.00
13569;DHT22;6856;51.460;7.158;2022-07-23T17:56:23;29.60;41.00
13569;DHT22;6856;51.460;7.158;2022-07-23T17:59:00;29.60;41.30
13569;DHT22;6856;51.460;7.158;2022-07-23T18:01:35;29.60;40.70
13569;DHT22;6856;51.460;7.158;2022-07-23T18:04:11;29.50;40.60
13569;DHT22;6856;51.460;7.158;2022-07-23T18:06:46;29.40;41.10
13569;DHT22;6856;51.460;7.158;2022-07-23T18:09:23;29.40;41.00
13569;DHT22;6856;51.460;7.158;2022-07-23T18:11:58;29.30;41.20
13569;DHT22;6856;51.460;7.158;2022-07-23T18:14:35;29.30;41.20
13569;DHT22;6856;51.460;7.158;2022-07-23T18:17:10;29.20;41.10
13569;DHT22;6856;51.460;7.158;2022-07-23T18:19:45;29.10;41.40
13569;DHT22;6856;51.460;7.158;2022-07-23T18:22:20;29.10;41.20
13569;DHT22;6856;51.460;7.158;2022-07-23T18:24:55;29.10;41.50
13569;DHT22;6856;51.460;7.158;2022-07-23T18:27:31;29.00;41.80
13569;DHT22;6856;51.460;7.158;2022-07-23T18:30:08;28.90;42.10
13569;DHT22;6856;51.460;7.158;2022-07-23T18:32:43;28.90;41.90
13569;DHT22;6856;51.460;7.158;2022-07-23T18:35:18;28.90;42.40
13569;DHT22;6856;51.460;7.158;2022-07-23T18:37:55;28.80;41.90
13569;DHT22;6856;51.460;7.158;2022-07-23T18:40:31;28.80;42.20
13569;DHT22;6856;51.460;7.158;2022-07-23T18:43:06;28.70;41.90
13569;DHT22;6856;51.460;7.158;2022-07-23T18:45:43;28.70;41.50
13569;DHT22;6856;51.460;7.158;2022-07-23T18:48:19;28.60;42.10
13569;DHT22;6856;51.460;7.158;2022-07-23T18:50:55;28.50;42.20
13569;DHT22;6856;51.460;7.158;2022-07-23T18:53:30;28.50;42.20
13569;DHT22;6856;51.460;7.158;2022-07-23T18:56:05;28.40;42.00
13569;DHT22;6856;51.460;7.158;2022-07-23T18:58:40;28.30;42.20
13569;DHT22;6856;51.460;7.158;2022-07-23T19:01:17;28.30;42.40
13569;DHT22;6856;51.460;7.158;2022-07-23T19:03:53;28.20;42.60
13569;DHT22;6856;51.460;7.158;2022-07-23T19:06:28;28.10;42.70
13569;DHT22;6856;51.460;7.158;2022-07-23T19:09:03;28.00;42.40
13569;DHT22;6856;51.460;7.158;2022-07-23T19:11:38;28.00;43.00
13569;DHT22;6856;51.460;7.158;2022-07-23T19:14:13;27.90;43.10